Irene V — J8PS4 — position and weather

sailwx.info

Track history (hours):
 
Tides and Currents Weather Stations Pressure Air Temp Water Temp Dewpoint Dewpoint Depression Visibility Wind Speed Wind Dir Waves Ship Positions

Irene V

Last reported at 2015-May-19 23:33 UTC. Time now 2015-May-27 22:00 UTC.
Position N 17°48' W 063°07'.

Length 72 m; draft 3.5 m.

Type: Cargo ship. MMSI: 377924000.

Date/timePositionNaut miles runAvg speedWind from/ knotsBaromVisibWave heightAir tempDewpointWater temp
2015-May-19 23:33N 17°48' W 063°07'10 9.8
2015-May-19 22:33N 17°58' W 063°07'8 7.9
2015-May-19 21:33N 18°05' W 063°09'3 3.5
2015-May-19 20:33N 18°05' W 063°05'0 0.0
2015-May-19 19:32N 18°05' W 063°05'0 0.0
2015-May-19 18:32N 18°05' W 063°05'0 0.0
2015-May-19 17:33N 18°05' W 063°05'0 0.0
2015-May-19 16:30N 18°05' W 063°05'0 0.0
2015-May-19 15:33N 18°05' W 063°05'0 0.0
2015-May-19 14:33N 18°05' W 063°05'0 0.0
2015-May-19 13:33N 18°05' W 063°05'0 0.0
2015-May-19 12:33N 18°05' W 063°05'0 0.0
2015-May-19 11:32N 18°05' W 063°05'4 3.6
2015-May-19 10:33N 18°05' W 063°09'7 7.4
2015-May-19 09:33N 18°00' W 063°03'0 0.3
2015-May-19 08:32N 18°00' W 063°03'0 0.0
2015-May-19 07:31N 18°00' W 063°03'0 0.0
2015-May-19 06:32N 18°00' W 063°03'0 0.0
2015-May-19 05:33N 18°00' W 063°03'0 0.0
2015-May-19 04:30N 18°00' W 063°03'0 0.0
2015-May-19 03:32N 18°00' W 063°03'0 0.0
2015-May-19 02:27N 18°00' W 063°03'0 0.0
2015-May-19 01:30N 18°00' W 063°03'0 0.0
2015-May-19 00:33N 18°00' W 063°03'0 0.0
2015-May-18 23:28N 18°00' W 063°03'0 0.0
2015-May-18 22:31N 18°00' W 063°03'0 0.0
2015-May-18 21:32N 18°00' W 063°03'0 0.0
2015-May-18 20:31N 18°00' W 063°03'0 0.0
2015-May-18 19:31N 18°00' W 063°03'0 0.0
2015-May-18 18:30N 18°00' W 063°03'0 0.0
2015-May-18 17:33N 18°00' W 063°03'0 0.0
2015-May-18 16:33N 18°00' W 063°03'0 0.0
2015-May-18 15:31N 18°00' W 063°03'0 0.0
2015-May-18 14:31N 18°00' W 063°03'0 0.0
2015-May-18 13:32N 18°00' W 063°03'0 0.0
2015-May-18 12:33N 18°00' W 063°03'0 0.0
2015-May-18 11:31N 18°00' W 063°03'0 0.0
2015-May-18 10:32N 18°00' W 063°03'0 0.0
2015-May-18 09:32N 18°00' W 063°03'0 0.0
2015-May-18 08:32N 18°00' W 063°03'0 0.0
2015-May-18 07:33N 18°00' W 063°03'0 0.0
2015-May-18 06:33N 18°00' W 063°03'0 0.0
2015-May-18 05:32N 18°00' W 063°03'5 4.7
2015-May-18 04:32N 17°58' W 063°07'1 0.9
2015-May-18 03:32N 17°58' W 063°08'1 0.7
2015-May-18 02:33N 17°59' W 063°08'1 0.8
2015-May-18 01:33N 17°60' W 063°08'1 0.7
2015-May-18 00:33N 18°00' W 063°08'2 2.3
2015-May-17 23:33N 18°01' W 063°11'5 4.7
2015-May-17 22:33N 18°01' W 063°16'9 8.4
2015-May-17 21:32N 18°00' W 063°25'19 8.7
2015-May-17 19:21N 17°58' W 063°45'  
Track history (hours):
 
Tides and Currents Weather Stations Pressure Air Temp Water Temp Dewpoint Dewpoint Depression Visibility Wind Speed Wind Dir Waves Ship Positions

Irene V

Last reported at 2015-May-19 23:33 UTC. Time now 2015-May-27 22:00 UTC.
Position N 17°48' W 063°07'.

Length 72 m; draft 3.5 m.

Type: Cargo ship. MMSI: 377924000.

Date/timePositionNaut miles runAvg speedWind from/ knotsBaromVisibWave heightAir tempDewpointWater temp
2015-May-19 23:33N 17°48' W 063°07'10 9.8
2015-May-19 22:33N 17°58' W 063°07'8 7.9
2015-May-19 21:33N 18°05' W 063°09'3 3.5
2015-May-19 20:33N 18°05' W 063°05'0 0.0
2015-May-19 19:32N 18°05' W 063°05'0 0.0
2015-May-19 18:32N 18°05' W 063°05'0 0.0
2015-May-19 17:33N 18°05' W 063°05'0 0.0
2015-May-19 16:30N 18°05' W 063°05'0 0.0
2015-May-19 15:33N 18°05' W 063°05'0 0.0
2015-May-19 14:33N 18°05' W 063°05'0 0.0
2015-May-19 13:33N 18°05' W 063°05'0 0.0
2015-May-19 12:33N 18°05' W 063°05'0 0.0
2015-May-19 11:32N 18°05' W 063°05'4 3.6
2015-May-19 10:33N 18°05' W 063°09'7 7.4
2015-May-19 09:33N 18°00' W 063°03'0 0.3
2015-May-19 08:32N 18°00' W 063°03'0 0.0
2015-May-19 07:31N 18°00' W 063°03'0 0.0
2015-May-19 06:32N 18°00' W 063°03'0 0.0
2015-May-19 05:33N 18°00' W 063°03'0 0.0
2015-May-19 04:30N 18°00' W 063°03'0 0.0
2015-May-19 03:32N 18°00' W 063°03'0 0.0
2015-May-19 02:27N 18°00' W 063°03'0 0.0
2015-May-19 01:30N 18°00' W 063°03'0 0.0
2015-May-19 00:33N 18°00' W 063°03'0 0.0
2015-May-18 23:28N 18°00' W 063°03'0 0.0
2015-May-18 22:31N 18°00' W 063°03'0 0.0
2015-May-18 21:32N 18°00' W 063°03'0 0.0
2015-May-18 20:31N 18°00' W 063°03'0 0.0
2015-May-18 19:31N 18°00' W 063°03'0 0.0
2015-May-18 18:30N 18°00' W 063°03'0 0.0
2015-May-18 17:33N 18°00' W 063°03'0 0.0
2015-May-18 16:33N 18°00' W 063°03'0 0.0
2015-May-18 15:31N 18°00' W 063°03'0 0.0
2015-May-18 14:31N 18°00' W 063°03'0 0.0
2015-May-18 13:32N 18°00' W 063°03'0 0.0
2015-May-18 12:33N 18°00' W 063°03'0 0.0
2015-May-18 11:31N 18°00' W 063°03'0 0.0
2015-May-18 10:32N 18°00' W 063°03'0 0.0
2015-May-18 09:32N 18°00' W 063°03'0 0.0
2015-May-18 08:32N 18°00' W 063°03'0 0.0
2015-May-18 07:33N 18°00' W 063°03'0 0.0
2015-May-18 06:33N 18°00' W 063°03'0 0.0
2015-May-18 05:32N 18°00' W 063°03'5 4.7
2015-May-18 04:32N 17°58' W 063°07'1 0.9
2015-May-18 03:32N 17°58' W 063°08'1 0.7
2015-May-18 02:33N 17°59' W 063°08'1 0.8
2015-May-18 01:33N 17°60' W 063°08'1 0.7
2015-May-18 00:33N 18°00' W 063°08'2 2.3
2015-May-17 23:33N 18°01' W 063°11'5 4.7
2015-May-17 22:33N 18°01' W 063°16'9 8.4
2015-May-17 21:32N 18°00' W 063°25'19 8.7
2015-May-17 19:21N 17°58' W 063°45'  

Dump ship's entire track history